MSC Fortunate — 3FLG6 — position and weather

sailwx.info

Track history (hours):
 
Tides and Currents Weather Stations Pressure Air Temp Water Temp Dewpoint Dewpoint Depression Visibility Wind Speed Wind Dir Waves Ship Positions

MSC Fortunate

Last reported at 2015-May-20 13:34 UTC. Time now 2015-May-22 11:29 UTC.
Position N 32°45' E 031°12'.

Length 275 m; draft 11.9 m.

Type: Ship. MMSI: 356708000.

Date/timePositionNaut miles runAvg speedWind from/ knotsBaromVisibWave heightAir tempDewpointWater temp
2015-May-20 13:34N 32°45' E 031°12'1918.5
2015-May-20 12:33N 32°40' E 031°33'1918.9
2015-May-20 11:34N 32°35' E 031°54'1919.1
2015-May-20 10:33N 32°30' E 032°16'1919.1
2015-May-20 09:34N 32°25' E 032°38'1919.4
2015-May-20 08:34N 32°20' E 033°00'2019.6
2015-May-20 07:32N 32°15' E 033°23'1919.3
2015-May-20 06:34N 32°10' E 033°45'1918.8
2015-May-20 05:33N 32°03' E 034°05'31 1.9
2015-May-19 13:32N 31°50' E 034°39'0 0.0
2015-May-19 12:32N 31°50' E 034°39'0 0.0
2015-May-19 09:14N 31°50' E 034°39'4 0.2
2015-May-18 16:29N 31°51' E 034°35'0 0.0
2015-May-18 15:33N 31°51' E 034°35'0 0.1
2015-May-18 14:33N 31°51' E 034°35'25 6.3
2015-May-18 10:33N 32°16' E 034°38'1616.5
2015-May-18 09:33N 32°31' E 034°43'1616.1
2015-May-18 08:33N 32°47' E 034°48'11 0.5
2015-May-17 12:11N 32°49' E 035°01'0 0.0
2015-May-17 10:10N 32°49' E 035°01'0 0.0
2015-May-17 06:28N 32°49' E 035°01'0 0.0
2015-May-17 04:28N 32°49' E 035°01'0 0.0
2015-May-17 03:28N 32°49' E 035°01'0 0.0
2015-May-17 02:13N 32°49' E 035°01'0 0.0
2015-May-17 01:17N 32°49' E 035°01'0 0.0
2015-May-17 00:07N 32°49' E 035°01'0 0.0
2015-May-16 21:31N 32°49' E 035°01'0 0.0
2015-May-16 20:31N 32°49' E 035°01'1 0.4
2015-May-16 18:21N 32°50' E 035°01'4 4.7
2015-May-16 17:33N 32°52' E 034°58'2 2.1
2015-May-16 16:31N 32°55' E 034°58'1 1.1
2015-May-16 15:33N 32°54' E 034°57'2 1.6
2015-May-16 14:33N 32°54' E 034°55'7 7.2
2015-May-16 13:33N 32°55' E 034°47'7 6.9
2015-May-16 12:33N 32°55' E 034°38'1616.5
2015-May-16 11:33N 32°58' E 034°19'1716.6
2015-May-16 10:33N 33°01' E 033°60'1717.1
2015-May-16 09:33N 32°55' E 033°41'1717.1
2015-May-16 08:33N 32°49' E 033°22'1717.1
2015-May-16 07:33N 32°43' E 033°02'2516.9
2015-May-16 06:03N 32°34' E 032°34'916.6
2015-May-16 05:32N 32°31' E 032°25'1616.8
2015-May-16 04:33N 32°25' E 032°06'1717.0
2015-May-16 03:33N 32°19' E 031°48'3216.2
2015-May-16 01:33N 32°08' E 031°12'1815.9
2015-May-16 00:27N 32°02' E 030°52'1516.6
2015-May-15 23:33N 31°57' E 030°36'1716.5
2015-May-15 22:31N 31°49' E 030°18'1616.6
2015-May-15 21:33N 31°38' E 030°04'1716.7
2015-May-15 20:33N 31°25' E 029°53'1514.9
2015-May-15 19:33N 31°10' E 029°48'2 1.2
2015-May-15 18:06N 31°09' E 029°48'0 0.0
2015-May-15 17:30N 31°09' E 029°48'  
2015-May-13 09:34N 32°06' E 033°35'1918.8
2015-May-13 08:34N 32°05' E 033°57'1919.2
2015-May-13 07:34N 31°57' E 034°18'1716.7
2015-May-13 06:33N 31°52' E 034°37'0 0.0
2015-May-12 01:23N 31°52' E 034°37'4 4.7
2015-May-12 00:31N 31°52' E 034°32'1010.3
2015-May-11 23:33N 31°55' E 034°21'1110.9
2015-May-11 22:33N 31°60' E 034°10'1111.3
2015-May-11 21:34N 32°04' E 033°58'1414.1
2015-May-11 20:33N 32°09' E 033°42'1515.0
2015-May-11 19:33N 32°13' E 033°25'1514.8
2015-May-11 18:33N 32°17' E 033°08'4217.2
2015-May-11 16:07N 32°28' E 032°20'1018.7
2015-May-11 15:33N 32°31' E 032°08'1918.6
2015-May-11 14:32N 32°36' E 031°46'1818.9
2015-May-11 13:33N 32°40' E 031°25'  
Track history (hours):
 
Tides and Currents Weather Stations Pressure Air Temp Water Temp Dewpoint Dewpoint Depression Visibility Wind Speed Wind Dir Waves Ship Positions

MSC Fortunate

Last reported at 2015-May-20 13:34 UTC. Time now 2015-May-22 11:29 UTC.
Position N 32°45' E 031°12'.

Length 275 m; draft 11.9 m.

Type: Ship. MMSI: 356708000.

Date/timePositionNaut miles runAvg speedWind from/ knotsBaromVisibWave heightAir tempDewpointWater temp
2015-May-20 13:34N 32°45' E 031°12'1918.5
2015-May-20 12:33N 32°40' E 031°33'1918.9
2015-May-20 11:34N 32°35' E 031°54'1919.1
2015-May-20 10:33N 32°30' E 032°16'1919.1
2015-May-20 09:34N 32°25' E 032°38'1919.4
2015-May-20 08:34N 32°20' E 033°00'2019.6
2015-May-20 07:32N 32°15' E 033°23'1919.3
2015-May-20 06:34N 32°10' E 033°45'1918.8
2015-May-20 05:33N 32°03' E 034°05'31 1.9
2015-May-19 13:32N 31°50' E 034°39'0 0.0
2015-May-19 12:32N 31°50' E 034°39'0 0.0
2015-May-19 09:14N 31°50' E 034°39'4 0.2
2015-May-18 16:29N 31°51' E 034°35'0 0.0
2015-May-18 15:33N 31°51' E 034°35'0 0.1
2015-May-18 14:33N 31°51' E 034°35'25 6.3
2015-May-18 10:33N 32°16' E 034°38'1616.5
2015-May-18 09:33N 32°31' E 034°43'1616.1
2015-May-18 08:33N 32°47' E 034°48'11 0.5
2015-May-17 12:11N 32°49' E 035°01'0 0.0
2015-May-17 10:10N 32°49' E 035°01'0 0.0
2015-May-17 06:28N 32°49' E 035°01'0 0.0
2015-May-17 04:28N 32°49' E 035°01'0 0.0
2015-May-17 03:28N 32°49' E 035°01'0 0.0
2015-May-17 02:13N 32°49' E 035°01'0 0.0
2015-May-17 01:17N 32°49' E 035°01'0 0.0
2015-May-17 00:07N 32°49' E 035°01'0 0.0
2015-May-16 21:31N 32°49' E 035°01'0 0.0
2015-May-16 20:31N 32°49' E 035°01'1 0.4
2015-May-16 18:21N 32°50' E 035°01'4 4.7
2015-May-16 17:33N 32°52' E 034°58'2 2.1
2015-May-16 16:31N 32°55' E 034°58'1 1.1
2015-May-16 15:33N 32°54' E 034°57'2 1.6
2015-May-16 14:33N 32°54' E 034°55'7 7.2
2015-May-16 13:33N 32°55' E 034°47'7 6.9
2015-May-16 12:33N 32°55' E 034°38'1616.5
2015-May-16 11:33N 32°58' E 034°19'1716.6
2015-May-16 10:33N 33°01' E 033°60'1717.1
2015-May-16 09:33N 32°55' E 033°41'1717.1
2015-May-16 08:33N 32°49' E 033°22'1717.1
2015-May-16 07:33N 32°43' E 033°02'2516.9
2015-May-16 06:03N 32°34' E 032°34'916.6
2015-May-16 05:32N 32°31' E 032°25'1616.8
2015-May-16 04:33N 32°25' E 032°06'1717.0
2015-May-16 03:33N 32°19' E 031°48'3216.2
2015-May-16 01:33N 32°08' E 031°12'1815.9
2015-May-16 00:27N 32°02' E 030°52'1516.6
2015-May-15 23:33N 31°57' E 030°36'1716.5
2015-May-15 22:31N 31°49' E 030°18'1616.6
2015-May-15 21:33N 31°38' E 030°04'1716.7
2015-May-15 20:33N 31°25' E 029°53'1514.9
2015-May-15 19:33N 31°10' E 029°48'2 1.2
2015-May-15 18:06N 31°09' E 029°48'0 0.0
2015-May-15 17:30N 31°09' E 029°48'  
2015-May-13 09:34N 32°06' E 033°35'1918.8
2015-May-13 08:34N 32°05' E 033°57'1919.2
2015-May-13 07:34N 31°57' E 034°18'1716.7
2015-May-13 06:33N 31°52' E 034°37'0 0.0
2015-May-12 01:23N 31°52' E 034°37'4 4.7
2015-May-12 00:31N 31°52' E 034°32'1010.3
2015-May-11 23:33N 31°55' E 034°21'1110.9
2015-May-11 22:33N 31°60' E 034°10'1111.3
2015-May-11 21:34N 32°04' E 033°58'1414.1
2015-May-11 20:33N 32°09' E 033°42'1515.0
2015-May-11 19:33N 32°13' E 033°25'1514.8
2015-May-11 18:33N 32°17' E 033°08'4217.2
2015-May-11 16:07N 32°28' E 032°20'1018.7
2015-May-11 15:33N 32°31' E 032°08'1918.6
2015-May-11 14:32N 32°36' E 031°46'1818.9
2015-May-11 13:33N 32°40' E 031°25'  

Dump ship's entire track history